createdAt,value
2023-02-28T00:01:33.500Z,1.56
2023-02-28T00:04:00.704Z,1.54
2023-02-28T00:06:27.935Z,1.53
2023-02-28T00:08:55.376Z,1.55
2023-02-28T00:11:22.796Z,1.54
2023-02-28T00:13:50.466Z,1.58
2023-02-28T00:16:20.431Z,1.55
2023-02-28T00:18:48.766Z,1.57
2023-02-28T00:21:17.470Z,1.56
2023-02-28T00:23:45.094Z,1.60
2023-02-28T00:26:12.852Z,1.59
2023-02-28T00:28:42.942Z,1.56
2023-02-28T00:31:10.252Z,1.53
2023-02-28T00:33:37.417Z,1.54
2023-02-28T00:36:10.485Z,1.54
2023-02-28T00:38:38.886Z,1.54
2023-02-28T00:41:06.791Z,1.53
2023-02-28T00:43:35.836Z,1.50
2023-02-28T00:46:04.374Z,1.53
2023-02-28T00:48:31.966Z,1.53
2023-02-28T00:50:59.336Z,1.55
2023-02-28T00:53:26.729Z,1.51
2023-02-28T00:55:54.092Z,1.46
2023-02-28T00:58:21.389Z,1.43
2023-02-28T01:00:50.081Z,1.42
2023-02-28T01:03:19.256Z,1.40
2023-02-28T01:05:47.384Z,1.39
2023-02-28T01:08:15.868Z,1.31
2023-02-28T01:10:43.687Z,1.28
2023-02-28T01:13:11.356Z,1.27
2023-02-28T01:15:41.817Z,1.29
2023-02-28T01:18:09.034Z,1.31
2023-02-28T01:20:38.983Z,1.29
2023-02-28T01:23:06.317Z,1.27
2023-02-28T01:25:36.366Z,1.24
2023-02-28T01:28:06.746Z,1.23
2023-02-28T01:30:35.426Z,1.26
2023-02-28T01:33:02.697Z,1.24
2023-02-28T01:35:29.967Z,1.27
2023-02-28T01:38:02.833Z,1.25
2023-02-28T01:40:34.043Z,1.30
2023-02-28T01:43:01.472Z,1.35
2023-02-28T01:45:30.998Z,1.43
2023-02-28T01:48:06.671Z,1.44
2023-02-28T01:50:40.257Z,1.49
2023-02-28T01:53:11.526Z,1.45
2023-02-28T01:55:39.901Z,1.45
2023-02-28T01:58:10.177Z,1.45
2023-02-28T02:00:39.855Z,1.48
2023-02-28T02:03:11.119Z,1.46
2023-02-28T02:05:40.845Z,1.44
2023-02-28T02:08:13.640Z,1.38
2023-02-28T02:10:54.418Z,1.39
2023-02-28T02:13:43.442Z,1.39
2023-02-28T02:16:23.775Z,1.45
2023-02-28T02:18:58.985Z,1.45
2023-02-28T02:21:38.446Z,1.43
2023-02-28T02:24:56.851Z,1.43
2023-02-28T02:27:35.200Z,1.51
2023-02-28T02:30:56.573Z,1.53
2023-02-28T02:33:45.330Z,1.50
2023-02-28T02:36:25.435Z,1.51
2023-02-28T02:39:07.059Z,1.46
2023-02-28T02:41:41.700Z,1.42
2023-02-28T02:44:24.098Z,1.43
2023-02-28T02:46:56.338Z,1.47
2023-02-28T02:49:30.225Z,1.47
2023-02-28T02:52:04.177Z,1.44
2023-02-28T02:54:44.710Z,1.45
2023-02-28T02:57:16.894Z,1.44
2023-02-28T02:59:45.567Z,1.41
2023-02-28T03:02:17.337Z,1.42
2023-02-28T03:04:49.669Z,1.42
2023-02-28T03:07:16.960Z,1.45
2023-02-28T03:09:58.637Z,1.37
2023-02-28T03:12:42.116Z,1.38
2023-02-28T03:15:23.046Z,1.38
2023-02-28T03:18:09.460Z,1.37
2023-02-28T03:21:01.807Z,1.38
2023-02-28T03:23:38.950Z,1.42
2023-02-28T03:26:17.546Z,1.42
2023-02-28T03:28:59.948Z,1.36
2023-02-28T03:31:48.811Z,1.40
2023-02-28T03:34:30.579Z,1.38
2023-02-28T03:37:03.787Z,1.34
2023-02-28T03:39:41.650Z,1.27
2023-02-28T03:42:13.634Z,1.29
2023-02-28T03:44:49.818Z,1.27
2023-02-28T03:47:25.259Z,1.32
2023-02-28T03:49:57.837Z,1.34
2023-02-28T03:52:28.890Z,1.21
2023-02-28T03:55:04.520Z,1.19
2023-02-28T03:57:57.753Z,1.18
2023-02-28T04:00:34.144Z,1.09
2023-02-28T04:03:01.389Z,1.16
2023-02-28T04:05:29.072Z,1.10
2023-02-28T04:08:05.799Z,1.11
2023-02-28T04:10:33.394Z,1.09
2023-02-28T04:13:00.536Z,1.04
2023-02-28T04:15:28.394Z,0.98
2023-02-28T04:17:55.587Z,1.00
2023-02-28T04:20:22.842Z,0.98
2023-02-28T04:22:50.039Z,0.98
2023-02-28T04:25:17.322Z,0.97
2023-02-28T04:27:45.578Z,0.91
2023-02-28T04:30:13.539Z,0.87
2023-02-28T04:32:40.807Z,0.85
2023-02-28T04:35:09.933Z,0.84
2023-02-28T04:37:38.597Z,0.85
2023-02-28T04:40:06.268Z,0.88
2023-02-28T04:42:36.613Z,0.89
2023-02-28T04:45:04.782Z,0.90
2023-02-28T04:47:32.160Z,0.88
2023-02-28T04:49:59.419Z,0.83
2023-02-28T04:52:28.730Z,0.81
2023-02-28T04:54:56.104Z,0.82
2023-02-28T04:57:23.263Z,0.82
2023-02-28T04:59:50.401Z,0.81
2023-02-28T05:02:17.978Z,0.82
2023-02-28T05:04:45.228Z,0.81
2023-02-28T05:07:12.401Z,0.79
2023-02-28T05:09:39.516Z,0.79
2023-02-28T05:12:06.973Z,0.82
2023-02-28T05:14:34.119Z,0.88
2023-02-28T05:17:01.282Z,0.92
2023-02-28T05:19:28.476Z,0.91
2023-02-28T05:21:56.578Z,0.90
2023-02-28T05:24:24.479Z,0.95
2023-02-28T05:26:54.541Z,1.01
2023-02-28T05:29:22.239Z,1.05
2023-02-28T05:31:49.576Z,1.08
2023-02-28T05:34:17.088Z,1.10
2023-02-28T05:36:44.422Z,1.14
2023-02-28T05:39:13.702Z,1.11
2023-02-28T05:41:44.683Z,1.11
2023-02-28T05:44:12.175Z,1.19
2023-02-28T05:46:39.542Z,1.20
2023-02-28T05:49:06.823Z,1.26
2023-02-28T05:51:35.269Z,1.29
2023-02-28T05:54:03.228Z,1.29
2023-02-28T05:56:30.582Z,1.31
2023-02-28T05:58:57.870Z,1.30
2023-02-28T06:01:36.044Z,1.30
2023-02-28T06:04:05.232Z,1.34
2023-02-28T06:06:33.827Z,1.38
2023-02-28T06:09:02.695Z,1.41
2023-02-28T06:11:30.997Z,1.47
2023-02-28T06:14:00.669Z,1.45
2023-02-28T06:16:29.139Z,1.45
2023-02-28T06:18:59.095Z,1.55
2023-02-28T06:21:28.838Z,1.59
2023-02-28T06:23:57.485Z,1.64
2023-02-28T06:26:25.047Z,1.60
2023-02-28T06:28:52.239Z,1.65
2023-02-28T06:31:20.339Z,1.62
2023-02-28T06:33:48.330Z,1.77
2023-02-28T06:36:16.653Z,1.88
2023-02-28T06:38:44.899Z,1.93
2023-02-28T06:41:12.437Z,1.98
2023-02-28T06:43:43.384Z,2.04
2023-02-28T06:46:14.906Z,2.11
2023-02-28T06:48:45.017Z,2.18
2023-02-28T06:51:15.725Z,2.10
2023-02-28T06:53:43.485Z,2.21
2023-02-28T06:56:17.532Z,2.22
2023-02-28T06:58:49.456Z,2.27
2023-02-28T07:01:17.456Z,2.32
2023-02-28T07:03:44.693Z,2.34
2023-02-28T07:06:11.962Z,2.34
2023-02-28T07:08:41.086Z,2.31
2023-02-28T07:11:08.256Z,2.41
2023-02-28T07:13:35.413Z,2.38
2023-02-28T07:16:05.880Z,2.38
2023-02-28T07:18:33.182Z,2.50
2023-02-28T07:21:03.578Z,2.63
2023-02-28T07:23:30.848Z,2.70
2023-02-28T07:25:58.040Z,2.75
2023-02-28T07:28:25.243Z,2.84
2023-02-28T07:30:52.543Z,2.80
2023-02-28T07:33:19.941Z,2.82
2023-02-28T07:35:47.223Z,2.68
2023-02-28T07:38:14.862Z,2.60
2023-02-28T07:40:42.232Z,2.60
2023-02-28T07:43:09.422Z,2.70
2023-02-28T07:45:36.631Z,2.69
2023-02-28T07:48:03.938Z,2.85
2023-02-28T07:50:31.911Z,3.01
2023-02-28T07:53:00.403Z,2.95
2023-02-28T07:55:28.239Z,2.95
2023-02-28T07:57:55.604Z,3.08
2023-02-28T08:00:23.495Z,3.17
2023-02-28T08:02:50.843Z,3.51
2023-02-28T08:05:21.474Z,3.78
2023-02-28T08:07:50.548Z,4.04
2023-02-28T08:10:17.977Z,4.44
2023-02-28T08:12:45.145Z,4.68
2023-02-28T08:15:12.351Z,4.79
2023-02-28T08:17:39.642Z,5.04
2023-02-28T08:20:07.554Z,5.48
2023-02-28T08:22:34.739Z,5.80
2023-02-28T08:25:02.066Z,5.93
2023-02-28T08:27:29.285Z,6.48
2023-02-28T08:29:56.433Z,6.76
2023-02-28T08:32:29.772Z,6.10
2023-02-28T08:34:57.254Z,5.47
2023-02-28T08:37:24.610Z,5.68
2023-02-28T08:39:54.737Z,5.31
2023-02-28T08:42:23.879Z,5.56
2023-02-28T08:44:51.059Z,5.50
2023-02-28T08:47:18.353Z,5.89
2023-02-28T08:49:45.525Z,5.26
2023-02-28T08:52:12.910Z,4.90
2023-02-28T08:54:40.068Z,5.35
2023-02-28T08:57:07.376Z,5.47
2023-02-28T08:59:34.519Z,5.39
2023-02-28T09:02:01.737Z,5.38
2023-02-28T09:04:31.726Z,5.31
2023-02-28T09:06:59.031Z,5.15
2023-02-28T09:09:26.282Z,5.47
2023-02-28T09:11:56.040Z,5.41
2023-02-28T09:14:23.396Z,5.53
2023-02-28T09:16:50.708Z,5.66
2023-02-28T09:19:17.893Z,6.35
2023-02-28T09:21:45.098Z,6.74
2023-02-28T09:24:15.285Z,7.16
2023-02-28T09:26:47.225Z,7.45
2023-02-28T09:29:22.940Z,7.69
2023-02-28T09:31:50.701Z,7.62
2023-02-28T09:34:18.517Z,7.17
2023-02-28T09:36:46.909Z,6.88
2023-02-28T09:39:16.566Z,6.95
2023-02-28T09:41:51.409Z,7.09
2023-02-28T09:44:39.672Z,7.08
2023-02-28T09:47:19.670Z,6.92
2023-02-28T09:49:48.833Z,6.32
2023-02-28T09:52:29.986Z,5.92
2023-02-28T09:55:17.241Z,6.30
2023-02-28T09:57:45.670Z,6.05
2023-02-28T10:00:32.509Z,6.44
2023-02-28T10:03:33.572Z,6.84
2023-02-28T10:06:06.718Z,6.98
2023-02-28T10:09:03.056Z,7.08
2023-02-28T10:11:34.289Z,7.19
2023-02-28T10:14:26.976Z,7.06
2023-02-28T10:17:26.450Z,6.85
2023-02-28T10:20:01.884Z,6.69
2023-02-28T10:22:36.854Z,6.53
2023-02-28T10:25:23.080Z,6.60
2023-02-28T10:27:54.315Z,6.49
2023-02-28T10:30:21.508Z,6.82
2023-02-28T10:32:54.638Z,6.69
2023-02-28T10:35:26.318Z,6.35
2023-02-28T10:38:01.778Z,6.07
2023-02-28T10:40:36.577Z,5.80
2023-02-28T10:43:24.376Z,5.74
2023-02-28T10:46:04.024Z,6.33
2023-02-28T10:48:36.934Z,6.68
2023-02-28T10:51:05.557Z,6.66
2023-02-28T10:53:57.721Z,6.71
2023-02-28T10:56:26.518Z,6.96
2023-02-28T10:59:16.174Z,7.22
2023-02-28T11:01:47.175Z,6.29
2023-02-28T11:04:19.224Z,6.60
2023-02-28T11:06:47.184Z,6.66
2023-02-28T11:09:28.212Z,6.35
2023-02-28T11:11:55.566Z,6.82
2023-02-28T11:14:26.394Z,6.14
2023-02-28T11:16:55.055Z,6.08
2023-02-28T11:19:31.576Z,5.93
2023-02-28T11:22:02.331Z,5.82
2023-02-28T11:24:45.452Z,5.92
2023-02-28T11:27:31.120Z,5.65
2023-02-28T11:30:02.117Z,5.76
2023-02-28T11:32:31.431Z,5.91
2023-02-28T11:35:11.009Z,6.00
2023-02-28T11:37:39.725Z,6.57
2023-02-28T11:40:15.239Z,6.02
2023-02-28T11:43:03.928Z,5.98
2023-02-28T11:45:43.904Z,5.87
2023-02-28T11:48:29.802Z,5.71
2023-02-28T11:51:10.872Z,5.60
2023-02-28T11:54:07.624Z,5.23
2023-02-28T11:56:40.601Z,5.19
2023-02-28T11:59:36.220Z,5.19
2023-02-28T12:02:24.498Z,5.28
2023-02-28T12:05:11.972Z,5.80
2023-02-28T12:08:03.251Z,6.18
2023-02-28T12:10:44.538Z,6.05
2023-02-28T12:13:25.279Z,5.76
2023-02-28T12:16:13.956Z,5.32
2023-02-28T12:18:56.301Z,5.36
2023-02-28T12:21:36.465Z,5.14
2023-02-28T12:24:30.384Z,4.79
2023-02-28T12:27:00.650Z,5.11
2023-02-28T12:29:45.411Z,5.30
2023-02-28T12:32:31.530Z,5.43
2023-02-28T12:35:05.910Z,5.21
2023-02-28T12:37:46.798Z,4.96
2023-02-28T12:40:21.750Z,4.26
2023-02-28T12:43:09.792Z,4.22
2023-02-28T12:46:01.997Z,4.31
2023-02-28T12:48:43.525Z,4.39
2023-02-28T12:51:12.371Z,4.35
2023-02-28T12:53:52.935Z,3.62
2023-02-28T12:56:47.466Z,3.71
2023-02-28T12:59:52.684Z,4.20
2023-02-28T13:02:31.956Z,4.60
2023-02-28T13:05:20.865Z,4.53
2023-02-28T13:07:57.022Z,4.08
2023-02-28T13:10:26.176Z,3.79
2023-02-28T13:12:55.826Z,3.74
2023-02-28T13:15:29.600Z,3.94
2023-02-28T13:17:59.601Z,3.88
2023-02-28T13:20:37.329Z,3.98
2023-02-28T13:23:06.481Z,4.22
2023-02-28T13:25:42.868Z,4.13
2023-02-28T13:28:12.264Z,4.09
2023-02-28T13:30:56.553Z,4.02
2023-02-28T13:33:30.866Z,4.08
2023-02-28T13:36:19.507Z,3.99
2023-02-28T13:38:52.663Z,3.94
2023-02-28T13:41:30.113Z,4.21
2023-02-28T13:44:04.988Z,4.37
2023-02-28T13:46:34.930Z,4.39
2023-02-28T13:49:20.649Z,4.30
2023-02-28T13:51:53.053Z,4.20
2023-02-28T13:54:23.051Z,4.09
2023-02-28T13:57:07.497Z,3.94
2023-02-28T14:00:06.741Z,3.86
2023-02-28T14:03:06.435Z,3.96
2023-02-28T14:05:34.929Z,3.83
2023-02-28T14:08:14.718Z,3.83
2023-02-28T14:11:03.147Z,3.88
2023-02-28T14:13:47.944Z,3.90
2023-02-28T14:16:21.022Z,3.94
2023-02-28T14:18:58.874Z,4.16
2023-02-28T14:21:30.492Z,4.05
2023-02-28T14:24:22.313Z,4.17
2023-02-28T14:27:09.964Z,4.06
2023-02-28T14:29:43.026Z,3.95
2023-02-28T14:32:28.474Z,3.93
2023-02-28T14:35:06.582Z,3.66
2023-02-28T14:37:40.176Z,3.55
2023-02-28T14:40:17.306Z,3.58
2023-02-28T14:42:56.431Z,3.34
2023-02-28T14:45:24.561Z,3.50
2023-02-28T14:47:53.019Z,3.58
2023-02-28T14:50:26.664Z,3.56
2023-02-28T14:52:58.785Z,3.42
2023-02-28T14:55:30.725Z,3.43
2023-02-28T14:58:05.250Z,3.46
2023-02-28T15:00:35.197Z,3.34
2023-02-28T15:03:19.752Z,3.41
2023-02-28T15:05:54.776Z,3.34
2023-02-28T15:08:22.393Z,3.27
2023-02-28T15:11:01.680Z,3.18
2023-02-28T15:13:48.792Z,3.07
2023-02-28T15:16:39.640Z,3.06
2023-02-28T15:19:14.089Z,2.91
2023-02-28T15:21:48.450Z,2.80
2023-02-28T15:24:41.003Z,2.68
2023-02-28T15:27:15.110Z,2.67
2023-02-28T15:29:50.272Z,2.66
2023-02-28T15:32:23.540Z,2.61
2023-02-28T15:34:50.825Z,2.58
2023-02-28T15:37:33.340Z,2.61
2023-02-28T15:40:12.554Z,2.56
2023-02-28T15:42:39.767Z,2.53
2023-02-28T15:45:27.150Z,2.52
2023-02-28T15:47:54.805Z,2.49
2023-02-28T15:50:23.340Z,2.52
2023-02-28T15:52:50.557Z,2.50
2023-02-28T15:55:24.007Z,2.51
2023-02-28T15:57:54.227Z,2.50
2023-02-28T16:00:26.822Z,2.42
2023-02-28T16:02:54.684Z,2.40
2023-02-28T16:05:32.770Z,2.36
2023-02-28T16:08:14.622Z,2.32
2023-02-28T16:10:41.984Z,2.30
2023-02-28T16:13:13.471Z,2.27
2023-02-28T16:15:44.310Z,2.21
2023-02-28T16:18:13.379Z,2.22
2023-02-28T16:20:40.981Z,2.23
2023-02-28T16:23:09.135Z,2.20
2023-02-28T16:25:40.533Z,2.15
2023-02-28T16:28:18.840Z,2.10
2023-02-28T16:30:46.310Z,2.09
2023-02-28T16:33:13.419Z,2.08
2023-02-28T16:35:40.733Z,2.06
2023-02-28T16:38:07.898Z,2.05
2023-02-28T16:40:36.974Z,2.06
2023-02-28T16:43:14.713Z,2.06
2023-02-28T16:45:42.082Z,2.05
2023-02-28T16:48:14.897Z,2.05
2023-02-28T16:50:43.229Z,2.02
2023-02-28T16:53:10.465Z,2.04
2023-02-28T16:55:38.084Z,2.04
2023-02-28T16:58:05.345Z,2.02
2023-02-28T17:00:33.691Z,2.01
2023-02-28T17:03:01.134Z,2.04
2023-02-28T17:05:34.013Z,2.02
2023-02-28T17:08:01.245Z,2.08
2023-02-28T17:10:29.954Z,2.12
2023-02-28T17:13:06.143Z,2.13
2023-02-28T17:15:38.584Z,2.14
2023-02-28T17:18:06.721Z,2.14
2023-02-28T17:20:33.943Z,2.13
2023-02-28T17:23:01.773Z,2.08
2023-02-28T17:25:28.994Z,2.12
2023-02-28T17:27:56.794Z,2.15
2023-02-28T17:30:30.721Z,2.13
2023-02-28T17:32:57.913Z,2.13
2023-02-28T17:35:25.412Z,2.16
2023-02-28T17:37:52.587Z,2.13
2023-02-28T17:40:23.038Z,2.14
2023-02-28T17:42:50.249Z,2.10
2023-02-28T17:45:17.477Z,2.09
2023-02-28T17:47:48.501Z,2.06
2023-02-28T17:50:20.513Z,2.11
2023-02-28T17:52:48.166Z,2.19
2023-02-28T17:55:15.531Z,2.20
2023-02-28T17:57:43.117Z,2.19
2023-02-28T18:00:14.496Z,2.16
2023-02-28T18:02:43.377Z,2.16
2023-02-28T18:05:11.277Z,2.17
2023-02-28T18:07:39.476Z,2.15
2023-02-28T18:10:12.321Z,2.15
2023-02-28T18:12:39.533Z,2.11
2023-02-28T18:15:07.192Z,2.09
2023-02-28T18:17:34.458Z,2.12
2023-02-28T18:20:01.599Z,2.18
2023-02-28T18:22:28.796Z,2.17
2023-02-28T18:24:56.087Z,2.12
2023-02-28T18:27:23.288Z,2.11
2023-02-28T18:29:52.429Z,2.11
2023-02-28T18:32:19.681Z,2.06
2023-02-28T18:34:46.871Z,2.04
2023-02-28T18:37:15.207Z,2.03
2023-02-28T18:39:42.340Z,2.08
2023-02-28T18:42:09.489Z,2.09
2023-02-28T18:44:38.032Z,2.09
2023-02-28T18:47:05.474Z,2.08
2023-02-28T18:49:37.393Z,2.03
2023-02-28T18:52:04.808Z,1.98
2023-02-28T18:54:32.077Z,2.01
2023-02-28T18:56:59.290Z,1.96
2023-02-28T18:59:26.476Z,1.98
2023-02-28T19:01:53.707Z,2.01
2023-02-28T19:04:20.897Z,1.98
2023-02-28T19:06:48.335Z,1.96
2023-02-28T19:09:15.671Z,1.93
2023-02-28T19:11:42.904Z,1.92
2023-02-28T19:14:10.013Z,1.90
2023-02-28T19:16:37.260Z,1.91
2023-02-28T19:19:04.460Z,1.88
2023-02-28T19:21:31.691Z,1.89
2023-02-28T19:23:58.911Z,1.92
2023-02-28T19:26:27.111Z,1.93
2023-02-28T19:28:54.473Z,1.91
2023-02-28T19:31:24.413Z,1.90
2023-02-28T19:33:53.073Z,1.90
2023-02-28T19:36:21.036Z,1.92
2023-02-28T19:38:49.193Z,1.94
2023-02-28T19:41:17.779Z,1.95
2023-02-28T19:43:45.328Z,1.94
2023-02-28T19:46:13.325Z,1.96
2023-02-28T19:48:42.366Z,1.97
2023-02-28T19:51:12.553Z,1.95
2023-02-28T19:53:41.307Z,1.92
2023-02-28T19:56:09.101Z,1.89
2023-02-28T19:58:36.443Z,1.91
2023-02-28T20:01:09.216Z,1.92
2023-02-28T20:03:36.486Z,1.97
2023-02-28T20:06:07.318Z,1.99
2023-02-28T20:08:34.507Z,1.99
2023-02-28T20:11:09.638Z,2.02
2023-02-28T20:13:37.132Z,2.01
2023-02-28T20:16:08.950Z,2.08
2023-02-28T20:18:37.762Z,2.14
2023-02-28T20:21:05.164Z,2.14
2023-02-28T20:23:32.411Z,2.05
2023-02-28T20:26:01.136Z,2.06
2023-02-28T20:28:28.349Z,2.02
2023-02-28T20:30:55.930Z,2.14
2023-02-28T20:33:23.284Z,2.22
2023-02-28T20:35:52.826Z,2.19
2023-02-28T20:38:20.378Z,2.22
2023-02-28T20:40:47.567Z,2.19
2023-02-28T20:43:14.819Z,2.15
2023-02-28T20:45:50.851Z,2.14
2023-02-28T20:48:18.103Z,2.16
2023-02-28T20:50:52.837Z,2.14
2023-02-28T20:53:20.064Z,2.14
2023-02-28T20:56:04.631Z,2.16
2023-02-28T20:58:34.801Z,2.15
2023-02-28T21:01:04.606Z,2.11
2023-02-28T21:03:31.804Z,2.12
2023-02-28T21:06:03.249Z,2.16
2023-02-28T21:08:30.610Z,2.17
2023-02-28T21:10:57.762Z,2.11
2023-02-28T21:13:26.746Z,2.11
2023-02-28T21:15:54.202Z,2.19
2023-02-28T21:18:21.398Z,2.26
2023-02-28T21:20:48.650Z,2.29
2023-02-28T21:23:15.800Z,2.28
2023-02-28T21:25:43.030Z,2.25
2023-02-28T21:28:10.196Z,2.25
2023-02-28T21:30:37.704Z,2.18
2023-02-28T21:33:04.869Z,2.22
2023-02-28T21:35:32.114Z,2.13
2023-02-28T21:37:59.325Z,2.11
2023-02-28T21:40:26.506Z,2.09
2023-02-28T21:42:53.848Z,2.11
2023-02-28T21:45:20.981Z,2.08
2023-02-28T21:47:48.082Z,2.05
2023-02-28T21:50:15.290Z,2.07
2023-02-28T21:52:42.480Z,2.11
2023-02-28T21:55:09.869Z,2.13
2023-02-28T21:57:37.105Z,2.15
2023-02-28T22:00:05.025Z,2.10
2023-02-28T22:02:39.347Z,2.08
2023-02-28T22:05:06.621Z,2.11
2023-02-28T22:07:33.852Z,2.09
2023-02-28T22:10:01.164Z,2.05
2023-02-28T22:12:30.550Z,2.03
2023-02-28T22:14:57.696Z,2.01
2023-02-28T22:17:24.847Z,1.98
2023-02-28T22:19:51.973Z,1.99
2023-02-28T22:22:19.091Z,1.98
2023-02-28T22:24:46.214Z,1.97
2023-02-28T22:27:13.390Z,1.95
2023-02-28T22:29:40.556Z,1.96
2023-02-28T22:32:09.781Z,1.96
2023-02-28T22:34:37.271Z,1.98
2023-02-28T22:37:04.391Z,1.98
2023-02-28T22:39:31.557Z,2.00
2023-02-28T22:41:58.778Z,2.00
2023-02-28T22:44:25.972Z,2.02
2023-02-28T22:46:54.264Z,2.02
2023-02-28T22:49:21.659Z,2.03
2023-02-28T22:51:48.850Z,2.05
2023-02-28T22:54:16.240Z,2.04
2023-02-28T22:56:43.609Z,2.06
2023-02-28T22:59:13.664Z,2.08
2023-02-28T23:01:43.909Z,2.10
2023-02-28T23:04:12.702Z,2.08
2023-02-28T23:06:44.415Z,2.10
2023-02-28T23:09:15.136Z,2.11
2023-02-28T23:11:45.400Z,2.07
2023-02-28T23:14:14.528Z,2.05
2023-02-28T23:16:49.885Z,2.04
2023-02-28T23:19:20.495Z,2.04
2023-02-28T23:21:48.162Z,2.03
2023-02-28T23:24:17.149Z,2.00
2023-02-28T23:26:47.097Z,1.99
2023-02-28T23:29:16.409Z,1.95
2023-02-28T23:31:44.152Z,1.98
2023-02-28T23:34:12.447Z,1.98
2023-02-28T23:36:43.553Z,1.95
2023-02-28T23:39:11.086Z,1.96
2023-02-28T23:41:38.294Z,1.96
2023-02-28T23:44:05.460Z,1.92
2023-02-28T23:46:33.055Z,1.94
2023-02-28T23:49:00.318Z,1.91
2023-02-28T23:51:27.558Z,1.90
2023-02-28T23:53:54.729Z,1.87
2023-02-28T23:56:24.703Z,1.86
2023-02-28T23:58:52.016Z,1.85
